sensor_id;sensor_type;location;lat;lon;timestamp;P1;durP1;ratioP1;P2;durP2;ratioP2
12990;SDS011;6560;57.692;11.958;2022-12-18T00:01:41;49.77;;;24.27;;
12990;SDS011;6560;57.692;11.958;2022-12-18T00:04:08;48.77;;;22.17;;
12990;SDS011;6560;57.692;11.958;2022-12-18T00:06:43;62.00;;;22.40;;
12990;SDS011;6560;57.692;11.958;2022-12-18T00:09:09;47.70;;;22.27;;
12990;SDS011;6560;57.692;11.958;2022-12-18T00:11:35;46.57;;;21.77;;
12990;SDS011;6560;57.692;11.958;2022-12-18T00:14:01;55.50;;;25.90;;
12990;SDS011;6560;57.692;11.958;2022-12-18T00:16:26;59.07;;;25.10;;
12990;SDS011;6560;57.692;11.958;2022-12-18T00:18:54;54.30;;;21.53;;
12990;SDS011;6560;57.692;11.958;2022-12-18T00:21:21;48.20;;;22.10;;
12990;SDS011;6560;57.692;11.958;2022-12-18T00:23:47;53.60;;;24.33;;
12990;SDS011;6560;57.692;11.958;2022-12-18T00:26:18;49.87;;;23.90;;
12990;SDS011;6560;57.692;11.958;2022-12-18T00:28:45;62.27;;;24.37;;
12990;SDS011;6560;57.692;11.958;2022-12-18T00:31:13;54.03;;;22.30;;
12990;SDS011;6560;57.692;11.958;2022-12-18T00:33:41;51.80;;;22.67;;
12990;SDS011;6560;57.692;11.958;2022-12-18T00:36:09;57.43;;;23.23;;
12990;SDS011;6560;57.692;11.958;2022-12-18T00:38:38;52.70;;;20.80;;
12990;SDS011;6560;57.692;11.958;2022-12-18T00:41:04;47.93;;;23.43;;
12990;SDS011;6560;57.692;11.958;2022-12-18T00:43:30;49.37;;;20.60;;
12990;SDS011;6560;57.692;11.958;2022-12-18T00:45:59;56.67;;;21.37;;
12990;SDS011;6560;57.692;11.958;2022-12-18T00:48:25;51.60;;;21.63;;
12990;SDS011;6560;57.692;11.958;2022-12-18T00:50:51;60.90;;;24.73;;
12990;SDS011;6560;57.692;11.958;2022-12-18T00:53:16;62.63;;;23.23;;
12990;SDS011;6560;57.692;11.958;2022-12-18T00:55:43;57.80;;;23.70;;
12990;SDS011;6560;57.692;11.958;2022-12-18T00:58:09;62.87;;;23.70;;
12990;SDS011;6560;57.692;11.958;2022-12-18T01:00:36;60.17;;;25.73;;
12990;SDS011;6560;57.692;11.958;2022-12-18T01:03:02;56.53;;;24.07;;
12990;SDS011;6560;57.692;11.958;2022-12-18T01:05:27;59.67;;;21.00;;
12990;SDS011;6560;57.692;11.958;2022-12-18T01:07:53;52.90;;;21.93;;
12990;SDS011;6560;57.692;11.958;2022-12-18T01:10:19;54.30;;;21.73;;
12990;SDS011;6560;57.692;11.958;2022-12-18T01:12:45;51.50;;;22.97;;
12990;SDS011;6560;57.692;11.958;2022-12-18T01:15:11;54.70;;;22.17;;
12990;SDS011;6560;57.692;11.958;2022-12-18T01:17:39;53.37;;;22.60;;
12990;SDS011;6560;57.692;11.958;2022-12-18T01:20:05;63.00;;;22.27;;
12990;SDS011;6560;57.692;11.958;2022-12-18T01:22:35;51.57;;;22.93;;
12990;SDS011;6560;57.692;11.958;2022-12-18T01:25:01;62.23;;;25.57;;
12990;SDS011;6560;57.692;11.958;2022-12-18T01:27:27;59.67;;;23.87;;
12990;SDS011;6560;57.692;11.958;2022-12-18T01:29:53;55.87;;;22.17;;
12990;SDS011;6560;57.692;11.958;2022-12-18T01:32:19;57.07;;;22.93;;
12990;SDS011;6560;57.692;11.958;2022-12-18T01:34:45;56.67;;;23.13;;
12990;SDS011;6560;57.692;11.958;2022-12-18T01:37:10;55.90;;;22.20;;
12990;SDS011;6560;57.692;11.958;2022-12-18T01:39:36;64.77;;;23.20;;
12990;SDS011;6560;57.692;11.958;2022-12-18T01:42:09;58.17;;;22.20;;
12990;SDS011;6560;57.692;11.958;2022-12-18T01:50:10;50.27;;;19.43;;
12990;SDS011;6560;57.692;11.958;2022-12-18T01:52:38;62.50;;;20.60;;
12990;SDS011;6560;57.692;11.958;2022-12-18T01:55:10;62.23;;;21.37;;
12990;SDS011;6560;57.692;11.958;2022-12-18T01:57:37;66.17;;;22.93;;
12990;SDS011;6560;57.692;11.958;2022-12-18T02:00:05;48.37;;;18.20;;
12990;SDS011;6560;57.692;11.958;2022-12-18T02:02:36;49.50;;;18.10;;
12990;SDS011;6560;57.692;11.958;2022-12-18T02:05:03;47.37;;;18.47;;
12990;SDS011;6560;57.692;11.958;2022-12-18T02:10:10;53.73;;;19.70;;
12990;SDS011;6560;57.692;11.958;2022-12-18T02:12:47;53.50;;;20.13;;
12990;SDS011;6560;57.692;11.958;2022-12-18T02:17:47;68.30;;;22.60;;
12990;SDS011;6560;57.692;11.958;2022-12-18T02:26:02;63.10;;;22.03;;
12990;SDS011;6560;57.692;11.958;2022-12-18T02:28:31;65.77;;;23.63;;
12990;SDS011;6560;57.692;11.958;2022-12-18T02:31:01;68.40;;;21.07;;
12990;SDS011;6560;57.692;11.958;2022-12-18T02:33:29;61.80;;;19.97;;
12990;SDS011;6560;57.692;11.958;2022-12-18T02:35:56;66.70;;;21.23;;
12990;SDS011;6560;57.692;11.958;2022-12-18T02:38:24;50.27;;;19.33;;
12990;SDS011;6560;57.692;11.958;2022-12-18T02:40:50;57.00;;;18.60;;
12990;SDS011;6560;57.692;11.958;2022-12-18T02:43:18;48.73;;;18.27;;
12990;SDS011;6560;57.692;11.958;2022-12-18T02:45:48;55.30;;;19.63;;
12990;SDS011;6560;57.692;11.958;2022-12-18T02:48:17;60.97;;;20.10;;
12990;SDS011;6560;57.692;11.958;2022-12-18T02:50:53;50.80;;;18.80;;
12990;SDS011;6560;57.692;11.958;2022-12-18T02:53:36;43.83;;;16.23;;
12990;SDS011;6560;57.692;11.958;2022-12-18T02:56:12;46.40;;;16.03;;
12990;SDS011;6560;57.692;11.958;2022-12-18T02:58:55;43.97;;;17.50;;
12990;SDS011;6560;57.692;11.958;2022-12-18T03:01:33;57.27;;;18.13;;
12990;SDS011;6560;57.692;11.958;2022-12-18T03:04:09;47.17;;;16.17;;
12990;SDS011;6560;57.692;11.958;2022-12-18T03:06:40;58.83;;;18.70;;
12990;SDS011;6560;57.692;11.958;2022-12-18T03:09:10;54.53;;;19.40;;
12990;SDS011;6560;57.692;11.958;2022-12-18T03:11:48;54.77;;;18.83;;
12990;SDS011;6560;57.692;11.958;2022-12-18T03:14:39;50.37;;;19.33;;
12990;SDS011;6560;57.692;11.958;2022-12-18T03:17:07;60.93;;;21.47;;
12990;SDS011;6560;57.692;11.958;2022-12-18T03:19:38;48.43;;;18.70;;
12990;SDS011;6560;57.692;11.958;2022-12-18T03:22:07;50.23;;;20.10;;
12990;SDS011;6560;57.692;11.958;2022-12-18T03:24:34;37.40;;;18.33;;
12990;SDS011;6560;57.692;11.958;2022-12-18T03:27:04;53.97;;;20.10;;
12990;SDS011;6560;57.692;11.958;2022-12-18T03:29:42;50.17;;;19.47;;
12990;SDS011;6560;57.692;11.958;2022-12-18T03:32:20;51.27;;;20.07;;
12990;SDS011;6560;57.692;11.958;2022-12-18T03:34:51;46.50;;;18.77;;
12990;SDS011;6560;57.692;11.958;2022-12-18T03:37:18;59.03;;;19.93;;
12990;SDS011;6560;57.692;11.958;2022-12-18T03:39:44;46.70;;;20.20;;
12990;SDS011;6560;57.692;11.958;2022-12-18T03:47:39;51.10;;;18.90;;
12990;SDS011;6560;57.692;11.958;2022-12-18T03:50:17;50.83;;;20.33;;
12990;SDS011;6560;57.692;11.958;2022-12-18T03:55:30;54.97;;;20.33;;
12990;SDS011;6560;57.692;11.958;2022-12-18T03:57:59;56.93;;;22.83;;
12990;SDS011;6560;57.692;11.958;2022-12-18T04:00:28;51.53;;;20.93;;
12990;SDS011;6560;57.692;11.958;2022-12-18T04:02:56;52.57;;;21.23;;
12990;SDS011;6560;57.692;11.958;2022-12-18T04:05:27;43.93;;;19.67;;
12990;SDS011;6560;57.692;11.958;2022-12-18T04:07:53;56.53;;;21.77;;
12990;SDS011;6560;57.692;11.958;2022-12-18T04:10:21;49.57;;;19.10;;
12990;SDS011;6560;57.692;11.958;2022-12-18T04:12:47;56.77;;;21.20;;
12990;SDS011;6560;57.692;11.958;2022-12-18T04:15:13;56.57;;;21.90;;
12990;SDS011;6560;57.692;11.958;2022-12-18T04:17:39;52.93;;;19.77;;
12990;SDS011;6560;57.692;11.958;2022-12-18T04:20:12;47.87;;;18.37;;
12990;SDS011;6560;57.692;11.958;2022-12-18T04:22:37;48.60;;;20.03;;
12990;SDS011;6560;57.692;11.958;2022-12-18T04:25:03;39.90;;;17.80;;
12990;SDS011;6560;57.692;11.958;2022-12-18T04:27:29;43.93;;;18.47;;
12990;SDS011;6560;57.692;11.958;2022-12-18T04:29:55;41.83;;;18.00;;
12990;SDS011;6560;57.692;11.958;2022-12-18T04:32:20;44.90;;;18.53;;
12990;SDS011;6560;57.692;11.958;2022-12-18T04:34:45;42.93;;;16.40;;
12990;SDS011;6560;57.692;11.958;2022-12-18T04:37:11;49.57;;;17.47;;
12990;SDS011;6560;57.692;11.958;2022-12-18T04:39:37;43.87;;;17.60;;
12990;SDS011;6560;57.692;11.958;2022-12-18T04:42:02;45.07;;;18.53;;
12990;SDS011;6560;57.692;11.958;2022-12-18T04:44:28;41.97;;;19.40;;
12990;SDS011;6560;57.692;11.958;2022-12-18T04:46:53;36.73;;;16.13;;
12990;SDS011;6560;57.692;11.958;2022-12-18T04:49:19;34.07;;;15.10;;
12990;SDS011;6560;57.692;11.958;2022-12-18T04:51:44;35.47;;;15.83;;
12990;SDS011;6560;57.692;11.958;2022-12-18T04:54:10;32.57;;;14.80;;
12990;SDS011;6560;57.692;11.958;2022-12-18T04:56:35;29.33;;;14.87;;
12990;SDS011;6560;57.692;11.958;2022-12-18T04:59:01;36.13;;;15.40;;
12990;SDS011;6560;57.692;11.958;2022-12-18T05:01:26;30.67;;;14.73;;
12990;SDS011;6560;57.692;11.958;2022-12-18T05:03:52;32.43;;;12.57;;
12990;SDS011;6560;57.692;11.958;2022-12-18T05:06:18;35.37;;;13.17;;
12990;SDS011;6560;57.692;11.958;2022-12-18T05:08:43;24.87;;;12.10;;
12990;SDS011;6560;57.692;11.958;2022-12-18T05:11:10;34.80;;;13.93;;
12990;SDS011;6560;57.692;11.958;2022-12-18T05:13:37;27.00;;;12.20;;
12990;SDS011;6560;57.692;11.958;2022-12-18T05:16:03;37.50;;;12.47;;
12990;SDS011;6560;57.692;11.958;2022-12-18T05:18:29;31.87;;;13.13;;
12990;SDS011;6560;57.692;11.958;2022-12-18T05:20:55;31.07;;;11.30;;
12990;SDS011;6560;57.692;11.958;2022-12-18T05:23:22;20.67;;;9.80;;
12990;SDS011;6560;57.692;11.958;2022-12-18T05:26:06;17.00;;;9.57;;
12990;SDS011;6560;57.692;11.958;2022-12-18T05:28:40;23.77;;;9.63;;
12990;SDS011;6560;57.692;11.958;2022-12-18T05:31:06;22.07;;;9.03;;
12990;SDS011;6560;57.692;11.958;2022-12-18T05:33:32;22.43;;;8.70;;
12990;SDS011;6560;57.692;11.958;2022-12-18T05:35:59;21.30;;;9.37;;
12990;SDS011;6560;57.692;11.958;2022-12-18T05:38:26;12.97;;;7.20;;
12990;SDS011;6560;57.692;11.958;2022-12-18T05:40:52;16.43;;;8.37;;
12990;SDS011;6560;57.692;11.958;2022-12-18T05:43:19;21.10;;;8.33;;
12990;SDS011;6560;57.692;11.958;2022-12-18T05:45:46;15.50;;;6.77;;
12990;SDS011;6560;57.692;11.958;2022-12-18T05:48:12;15.10;;;7.80;;
12990;SDS011;6560;57.692;11.958;2022-12-18T05:50:39;17.93;;;7.80;;
12990;SDS011;6560;57.692;11.958;2022-12-18T05:53:07;15.57;;;7.67;;
12990;SDS011;6560;57.692;11.958;2022-12-18T05:55:34;16.97;;;7.97;;
12990;SDS011;6560;57.692;11.958;2022-12-18T05:58:00;15.80;;;8.10;;
12990;SDS011;6560;57.692;11.958;2022-12-18T06:00:26;16.37;;;8.47;;
12990;SDS011;6560;57.692;11.958;2022-12-18T06:02:51;24.57;;;8.30;;
12990;SDS011;6560;57.692;11.958;2022-12-18T06:05:17;17.47;;;8.33;;
12990;SDS011;6560;57.692;11.958;2022-12-18T06:07:42;21.63;;;7.93;;
12990;SDS011;6560;57.692;11.958;2022-12-18T06:10:08;17.27;;;7.87;;
12990;SDS011;6560;57.692;11.958;2022-12-18T06:12:33;13.97;;;7.10;;
12990;SDS011;6560;57.692;11.958;2022-12-18T06:14:59;17.37;;;7.57;;
12990;SDS011;6560;57.692;11.958;2022-12-18T06:17:29;16.03;;;7.80;;
12990;SDS011;6560;57.692;11.958;2022-12-18T06:19:55;23.00;;;7.63;;
12990;SDS011;6560;57.692;11.958;2022-12-18T06:22:21;21.07;;;7.57;;
12990;SDS011;6560;57.692;11.958;2022-12-18T06:24:46;21.97;;;7.27;;
12990;SDS011;6560;57.692;11.958;2022-12-18T06:27:12;26.90;;;8.70;;
12990;SDS011;6560;57.692;11.958;2022-12-18T06:29:37;26.47;;;8.23;;
12990;SDS011;6560;57.692;11.958;2022-12-18T06:32:03;20.00;;;7.10;;
12990;SDS011;6560;57.692;11.958;2022-12-18T06:34:29;17.53;;;8.00;;
12990;SDS011;6560;57.692;11.958;2022-12-18T06:36:54;15.43;;;6.77;;
12990;SDS011;6560;57.692;11.958;2022-12-18T06:39:20;30.23;;;8.00;;
12990;SDS011;6560;57.692;11.958;2022-12-18T06:41:45;21.70;;;8.43;;
12990;SDS011;6560;57.692;11.958;2022-12-18T06:44:11;27.77;;;8.03;;
12990;SDS011;6560;57.692;11.958;2022-12-18T06:46:37;13.97;;;6.80;;
12990;SDS011;6560;57.692;11.958;2022-12-18T06:49:03;32.17;;;8.30;;
12990;SDS011;6560;57.692;11.958;2022-12-18T06:51:29;14.17;;;7.40;;
12990;SDS011;6560;57.692;11.958;2022-12-18T06:53:54;24.70;;;6.93;;
12990;SDS011;6560;57.692;11.958;2022-12-18T06:56:20;30.50;;;8.67;;
12990;SDS011;6560;57.692;11.958;2022-12-18T06:58:45;22.50;;;6.87;;
12990;SDS011;6560;57.692;11.958;2022-12-18T07:01:12;54.03;;;9.60;;
12990;SDS011;6560;57.692;11.958;2022-12-18T07:03:38;24.93;;;7.47;;
12990;SDS011;6560;57.692;11.958;2022-12-18T07:06:05;24.27;;;7.37;;
12990;SDS011;6560;57.692;11.958;2022-12-18T07:08:31;58.47;;;8.97;;
12990;SDS011;6560;57.692;11.958;2022-12-18T07:10:57;19.03;;;6.17;;
12990;SDS011;6560;57.692;11.958;2022-12-18T07:13:23;33.00;;;6.97;;
12990;SDS011;6560;57.692;11.958;2022-12-18T07:15:49;18.40;;;7.03;;
12990;SDS011;6560;57.692;11.958;2022-12-18T07:18:14;13.13;;;5.50;;
12990;SDS011;6560;57.692;11.958;2022-12-18T07:20:40;15.73;;;5.63;;
12990;SDS011;6560;57.692;11.958;2022-12-18T07:23:06;24.40;;;5.97;;
12990;SDS011;6560;57.692;11.958;2022-12-18T07:25:34;58.63;;;8.87;;
12990;SDS011;6560;57.692;11.958;2022-12-18T07:28:01;22.73;;;6.60;;
12990;SDS011;6560;57.692;11.958;2022-12-18T07:30:26;19.20;;;5.40;;
12990;SDS011;6560;57.692;11.958;2022-12-18T07:32:52;14.17;;;4.63;;
12990;SDS011;6560;57.692;11.958;2022-12-18T07:35:17;13.77;;;5.00;;
12990;SDS011;6560;57.692;11.958;2022-12-18T07:37:43;19.53;;;5.77;;
12990;SDS011;6560;57.692;11.958;2022-12-18T07:40:09;44.10;;;9.53;;
12990;SDS011;6560;57.692;11.958;2022-12-18T07:42:36;20.77;;;6.40;;
12990;SDS011;6560;57.692;11.958;2022-12-18T07:45:02;13.27;;;5.13;;
12990;SDS011;6560;57.692;11.958;2022-12-18T07:47:33;14.40;;;4.70;;
12990;SDS011;6560;57.692;11.958;2022-12-18T07:49:59;19.80;;;4.93;;
12990;SDS011;6560;57.692;11.958;2022-12-18T07:52:25;15.80;;;5.80;;
12990;SDS011;6560;57.692;11.958;2022-12-18T07:54:50;8.97;;;4.17;;
12990;SDS011;6560;57.692;11.958;2022-12-18T07:57:16;20.47;;;5.80;;
12990;SDS011;6560;57.692;11.958;2022-12-18T07:59:42;11.07;;;4.20;;
12990;SDS011;6560;57.692;11.958;2022-12-18T08:02:11;10.47;;;4.60;;
12990;SDS011;6560;57.692;11.958;2022-12-18T08:04:37;12.87;;;5.03;;
12990;SDS011;6560;57.692;11.958;2022-12-18T08:07:02;18.73;;;5.87;;
12990;SDS011;6560;57.692;11.958;2022-12-18T08:09:28;18.57;;;5.20;;
12990;SDS011;6560;57.692;11.958;2022-12-18T08:11:53;19.27;;;6.23;;
12990;SDS011;6560;57.692;11.958;2022-12-18T08:14:19;18.97;;;5.43;;
12990;SDS011;6560;57.692;11.958;2022-12-18T08:16:44;15.00;;;5.83;;
12990;SDS011;6560;57.692;11.958;2022-12-18T08:19:10;13.43;;;5.40;;
12990;SDS011;6560;57.692;11.958;2022-12-18T08:21:37;13.63;;;4.90;;
12990;SDS011;6560;57.692;11.958;2022-12-18T08:24:03;12.77;;;5.60;;
12990;SDS011;6560;57.692;11.958;2022-12-18T08:26:29;13.43;;;4.97;;
12990;SDS011;6560;57.692;11.958;2022-12-18T08:28:56;10.93;;;4.97;;
12990;SDS011;6560;57.692;11.958;2022-12-18T08:31:24;14.03;;;5.17;;
12990;SDS011;6560;57.692;11.958;2022-12-18T08:33:51;10.97;;;5.00;;
12990;SDS011;6560;57.692;11.958;2022-12-18T08:36:18;13.87;;;5.20;;
12990;SDS011;6560;57.692;11.958;2022-12-18T08:38:44;12.37;;;5.93;;
12990;SDS011;6560;57.692;11.958;2022-12-18T08:41:11;16.17;;;5.70;;
12990;SDS011;6560;57.692;11.958;2022-12-18T08:43:45;14.17;;;5.23;;
12990;SDS011;6560;57.692;11.958;2022-12-18T08:46:37;13.73;;;5.70;;
12990;SDS011;6560;57.692;11.958;2022-12-18T08:49:04;14.80;;;6.67;;
12990;SDS011;6560;57.692;11.958;2022-12-18T08:51:31;16.97;;;6.60;;
12990;SDS011;6560;57.692;11.958;2022-12-18T08:53:57;17.60;;;6.50;;
12990;SDS011;6560;57.692;11.958;2022-12-18T08:56:23;20.87;;;5.93;;
12990;SDS011;6560;57.692;11.958;2022-12-18T08:58:51;19.80;;;6.53;;
12990;SDS011;6560;57.692;11.958;2022-12-18T09:01:17;17.83;;;6.40;;
12990;SDS011;6560;57.692;11.958;2022-12-18T09:03:43;19.40;;;7.27;;
12990;SDS011;6560;57.692;11.958;2022-12-18T09:06:08;18.13;;;7.00;;
12990;SDS011;6560;57.692;11.958;2022-12-18T09:08:34;23.00;;;6.97;;
12990;SDS011;6560;57.692;11.958;2022-12-18T09:11:00;22.90;;;7.80;;
12990;SDS011;6560;57.692;11.958;2022-12-18T09:13:25;21.67;;;6.27;;
12990;SDS011;6560;57.692;11.958;2022-12-18T09:15:51;18.73;;;7.30;;
12990;SDS011;6560;57.692;11.958;2022-12-18T09:18:21;14.03;;;6.83;;
12990;SDS011;6560;57.692;11.958;2022-12-18T09:20:48;14.73;;;6.97;;
12990;SDS011;6560;57.692;11.958;2022-12-18T09:23:16;19.70;;;7.40;;
12990;SDS011;6560;57.692;11.958;2022-12-18T09:25:42;16.50;;;6.90;;
12990;SDS011;6560;57.692;11.958;2022-12-18T09:28:11;13.53;;;6.50;;
12990;SDS011;6560;57.692;11.958;2022-12-18T09:30:43;13.93;;;7.17;;
12990;SDS011;6560;57.692;11.958;2022-12-18T09:33:11;19.23;;;6.80;;
12990;SDS011;6560;57.692;11.958;2022-12-18T09:35:37;17.00;;;7.20;;
12990;SDS011;6560;57.692;11.958;2022-12-18T09:38:04;16.60;;;6.27;;
12990;SDS011;6560;57.692;11.958;2022-12-18T09:40:32;20.77;;;7.27;;
12990;SDS011;6560;57.692;11.958;2022-12-18T09:43:04;15.03;;;7.10;;
12990;SDS011;6560;57.692;11.958;2022-12-18T09:45:40;13.03;;;5.83;;
12990;SDS011;6560;57.692;11.958;2022-12-18T09:48:10;16.50;;;6.70;;
12990;SDS011;6560;57.692;11.958;2022-12-18T09:50:43;18.13;;;5.97;;
12990;SDS011;6560;57.692;11.958;2022-12-18T09:53:12;18.00;;;6.70;;
12990;SDS011;6560;57.692;11.958;2022-12-18T09:55:45;18.53;;;6.23;;
12990;SDS011;6560;57.692;11.958;2022-12-18T10:00:45;12.80;;;5.57;;
12990;SDS011;6560;57.692;11.958;2022-12-18T10:03:12;13.93;;;6.43;;
12990;SDS011;6560;57.692;11.958;2022-12-18T10:10:59;14.07;;;5.43;;
12990;SDS011;6560;57.692;11.958;2022-12-18T10:13:55;21.17;;;6.53;;
12990;SDS011;6560;57.692;11.958;2022-12-18T10:19:01;12.70;;;5.20;;
12990;SDS011;6560;57.692;11.958;2022-12-18T10:24:42;15.47;;;4.77;;
12990;SDS011;6560;57.692;11.958;2022-12-18T10:27:17;15.77;;;5.40;;
12990;SDS011;6560;57.692;11.958;2022-12-18T10:29:47;11.47;;;5.00;;
12990;SDS011;6560;57.692;11.958;2022-12-18T10:32:23;12.60;;;4.50;;
12990;SDS011;6560;57.692;11.958;2022-12-18T10:34:52;12.50;;;5.20;;
12990;SDS011;6560;57.692;11.958;2022-12-18T10:37:20;18.73;;;5.63;;
12990;SDS011;6560;57.692;11.958;2022-12-18T10:40:08;16.57;;;5.17;;
12990;SDS011;6560;57.692;11.958;2022-12-18T10:42:34;13.83;;;5.43;;
12990;SDS011;6560;57.692;11.958;2022-12-18T10:45:07;15.27;;;5.23;;
12990;SDS011;6560;57.692;11.958;2022-12-18T10:47:45;13.80;;;4.50;;
12990;SDS011;6560;57.692;11.958;2022-12-18T10:50:26;12.40;;;4.40;;
12990;SDS011;6560;57.692;11.958;2022-12-18T10:53:02;9.70;;;3.80;;
12990;SDS011;6560;57.692;11.958;2022-12-18T10:55:34;15.90;;;4.43;;
12990;SDS011;6560;57.692;11.958;2022-12-18T10:58:24;13.07;;;4.30;;
12990;SDS011;6560;57.692;11.958;2022-12-18T11:03:37;14.77;;;4.13;;
12990;SDS011;6560;57.692;11.958;2022-12-18T11:06:07;11.13;;;3.70;;
12990;SDS011;6560;57.692;11.958;2022-12-18T11:08:41;7.30;;;3.57;;
12990;SDS011;6560;57.692;11.958;2022-12-18T11:11:21;15.10;;;4.57;;
12990;SDS011;6560;57.692;11.958;2022-12-18T11:13:57;14.70;;;5.30;;
12990;SDS011;6560;57.692;11.958;2022-12-18T11:16:29;11.67;;;4.90;;
12990;SDS011;6560;57.692;11.958;2022-12-18T11:19:17;14.57;;;5.63;;
12990;SDS011;6560;57.692;11.958;2022-12-18T11:25:16;10.60;;;5.00;;
12990;SDS011;6560;57.692;11.958;2022-12-18T11:27:52;9.43;;;5.67;;
12990;SDS011;6560;57.692;11.958;2022-12-18T11:32:49;15.53;;;5.53;;
12990;SDS011;6560;57.692;11.958;2022-12-18T11:35:39;18.33;;;5.93;;
12990;SDS011;6560;57.692;11.958;2022-12-18T11:38:28;16.80;;;5.73;;
12990;SDS011;6560;57.692;11.958;2022-12-18T11:43:50;17.17;;;5.30;;
12990;SDS011;6560;57.692;11.958;2022-12-18T11:46:25;14.13;;;4.80;;
12990;SDS011;6560;57.692;11.958;2022-12-18T11:51:41;10.63;;;4.23;;
12990;SDS011;6560;57.692;11.958;2022-12-18T11:54:22;15.17;;;4.73;;
12990;SDS011;6560;57.692;11.958;2022-12-18T11:56:48;13.17;;;4.97;;
12990;SDS011;6560;57.692;11.958;2022-12-18T11:59:27;14.77;;;6.00;;
12990;SDS011;6560;57.692;11.958;2022-12-18T12:04:46;10.67;;;4.57;;
12990;SDS011;6560;57.692;11.958;2022-12-18T12:07:24;13.40;;;5.00;;
12990;SDS011;6560;57.692;11.958;2022-12-18T12:13:06;10.60;;;3.90;;
12990;SDS011;6560;57.692;11.958;2022-12-18T12:19:04;12.90;;;5.27;;
12990;SDS011;6560;57.692;11.958;2022-12-18T12:21:50;19.37;;;5.27;;
12990;SDS011;6560;57.692;11.958;2022-12-18T12:24:55;11.93;;;5.43;;
12990;SDS011;6560;57.692;11.958;2022-12-18T12:31:39;14.47;;;5.47;;
12990;SDS011;6560;57.692;11.958;2022-12-18T12:34:26;13.00;;;4.83;;
12990;SDS011;6560;57.692;11.958;2022-12-18T12:39:55;12.73;;;4.73;;
12990;SDS011;6560;57.692;11.958;2022-12-18T12:42:32;13.90;;;6.00;;
12990;SDS011;6560;57.692;11.958;2022-12-18T12:45:25;14.27;;;4.00;;
12990;SDS011;6560;57.692;11.958;2022-12-18T12:47:55;13.50;;;5.30;;
12990;SDS011;6560;57.692;11.958;2022-12-18T12:50:23;12.27;;;4.37;;
12990;SDS011;6560;57.692;11.958;2022-12-18T12:52:51;14.43;;;4.03;;
12990;SDS011;6560;57.692;11.958;2022-12-18T12:55:28;10.37;;;4.30;;
12990;SDS011;6560;57.692;11.958;2022-12-18T13:01:08;9.50;;;3.77;;
12990;SDS011;6560;57.692;11.958;2022-12-18T13:04:14;9.97;;;3.50;;
12990;SDS011;6560;57.692;11.958;2022-12-18T13:09:31;9.43;;;4.37;;
12990;SDS011;6560;57.692;11.958;2022-12-18T13:12:04;10.43;;;3.27;;
12990;SDS011;6560;57.692;11.958;2022-12-18T13:14:55;10.00;;;3.17;;
12990;SDS011;6560;57.692;11.958;2022-12-18T13:17:38;9.23;;;3.00;;
12990;SDS011;6560;57.692;11.958;2022-12-18T13:20:05;8.67;;;3.90;;
12990;SDS011;6560;57.692;11.958;2022-12-18T13:22:43;10.30;;;4.40;;
12990;SDS011;6560;57.692;11.958;2022-12-18T13:28:09;8.67;;;4.13;;
12990;SDS011;6560;57.692;11.958;2022-12-18T13:35:40;6.17;;;3.57;;
12990;SDS011;6560;57.692;11.958;2022-12-18T13:38:22;9.57;;;3.93;;
12990;SDS011;6560;57.692;11.958;2022-12-18T13:40:57;9.50;;;3.40;;
12990;SDS011;6560;57.692;11.958;2022-12-18T13:43:39;9.83;;;4.13;;
12990;SDS011;6560;57.692;11.958;2022-12-18T13:46:29;16.93;;;3.93;;
12990;SDS011;6560;57.692;11.958;2022-12-18T13:56:00;12.17;;;4.17;;
12990;SDS011;6560;57.692;11.958;2022-12-18T14:01:40;12.80;;;3.83;;
12990;SDS011;6560;57.692;11.958;2022-12-18T14:04:44;12.40;;;4.23;;
12990;SDS011;6560;57.692;11.958;2022-12-18T14:08:13;11.00;;;4.13;;
12990;SDS011;6560;57.692;11.958;2022-12-18T14:10:47;12.63;;;3.93;;
12990;SDS011;6560;57.692;11.958;2022-12-18T14:16:01;12.93;;;4.00;;
12990;SDS011;6560;57.692;11.958;2022-12-18T14:24:27;9.23;;;3.57;;
12990;SDS011;6560;57.692;11.958;2022-12-18T14:40:41;13.23;;;3.90;;
12990;SDS011;6560;57.692;11.958;2022-12-18T14:43:09;13.57;;;4.27;;
12990;SDS011;6560;57.692;11.958;2022-12-18T14:45:36;12.43;;;4.77;;
12990;SDS011;6560;57.692;11.958;2022-12-18T14:51:18;19.37;;;6.17;;
12990;SDS011;6560;57.692;11.958;2022-12-18T14:56:32;20.33;;;7.30;;
12990;SDS011;6560;57.692;11.958;2022-12-18T14:59:00;22.30;;;8.97;;
12990;SDS011;6560;57.692;11.958;2022-12-18T15:01:45;20.93;;;8.63;;
12990;SDS011;6560;57.692;11.958;2022-12-18T15:04:26;27.23;;;10.70;;
12990;SDS011;6560;57.692;11.958;2022-12-18T15:09:31;26.97;;;11.83;;
12990;SDS011;6560;57.692;11.958;2022-12-18T15:11:57;28.13;;;12.17;;
12990;SDS011;6560;57.692;11.958;2022-12-18T15:17:05;33.93;;;13.97;;
12990;SDS011;6560;57.692;11.958;2022-12-18T15:19:40;38.83;;;13.77;;
12990;SDS011;6560;57.692;11.958;2022-12-18T15:22:26;45.90;;;14.77;;
12990;SDS011;6560;57.692;11.958;2022-12-18T15:24:54;34.20;;;14.33;;
12990;SDS011;6560;57.692;11.958;2022-12-18T15:27:31;44.37;;;18.33;;
12990;SDS011;6560;57.692;11.958;2022-12-18T15:32:35;51.17;;;21.33;;
12990;SDS011;6560;57.692;11.958;2022-12-18T15:35:07;47.80;;;19.70;;
12990;SDS011;6560;57.692;11.958;2022-12-18T15:37:38;52.50;;;19.83;;
12990;SDS011;6560;57.692;11.958;2022-12-18T15:40:25;51.70;;;20.60;;
12990;SDS011;6560;57.692;11.958;2022-12-18T15:42:53;55.07;;;20.03;;
12990;SDS011;6560;57.692;11.958;2022-12-18T15:45:38;52.43;;;22.17;;
12990;SDS011;6560;57.692;11.958;2022-12-18T15:48:20;61.03;;;26.53;;
12990;SDS011;6560;57.692;11.958;2022-12-18T15:50:47;62.47;;;23.77;;
12990;SDS011;6560;57.692;11.958;2022-12-18T15:53:13;61.13;;;25.90;;
12990;SDS011;6560;57.692;11.958;2022-12-18T15:55:39;74.10;;;28.83;;
12990;SDS011;6560;57.692;11.958;2022-12-18T15:58:23;69.10;;;26.07;;
12990;SDS011;6560;57.692;11.958;2022-12-18T16:00:49;65.53;;;24.83;;
12990;SDS011;6560;57.692;11.958;2022-12-18T16:03:14;68.23;;;26.93;;
12990;SDS011;6560;57.692;11.958;2022-12-18T16:05:40;63.57;;;27.30;;
12990;SDS011;6560;57.692;11.958;2022-12-18T16:08:05;61.40;;;26.70;;
12990;SDS011;6560;57.692;11.958;2022-12-18T16:10:31;70.00;;;27.10;;
12990;SDS011;6560;57.692;11.958;2022-12-18T16:12:57;64.17;;;26.40;;
12990;SDS011;6560;57.692;11.958;2022-12-18T16:15:25;62.33;;;27.07;;
12990;SDS011;6560;57.692;11.958;2022-12-18T16:17:50;66.57;;;26.33;;
12990;SDS011;6560;57.692;11.958;2022-12-18T16:20:18;72.23;;;29.00;;
12990;SDS011;6560;57.692;11.958;2022-12-18T16:22:45;65.37;;;27.13;;
12990;SDS011;6560;57.692;11.958;2022-12-18T16:25:25;72.53;;;28.50;;
12990;SDS011;6560;57.692;11.958;2022-12-18T16:27:52;73.03;;;28.03;;
12990;SDS011;6560;57.692;11.958;2022-12-18T16:30:28;65.57;;;27.97;;
12990;SDS011;6560;57.692;11.958;2022-12-18T16:32:55;66.10;;;27.77;;
12990;SDS011;6560;57.692;11.958;2022-12-18T16:35:24;65.20;;;28.17;;
12990;SDS011;6560;57.692;11.958;2022-12-18T16:37:51;71.53;;;28.67;;
12990;SDS011;6560;57.692;11.958;2022-12-18T16:40:17;74.87;;;28.93;;
12990;SDS011;6560;57.692;11.958;2022-12-18T16:42:46;70.67;;;26.87;;
12990;SDS011;6560;57.692;11.958;2022-12-18T16:45:13;74.40;;;27.90;;
12990;SDS011;6560;57.692;11.958;2022-12-18T16:47:40;75.33;;;28.70;;
12990;SDS011;6560;57.692;11.958;2022-12-18T16:50:06;72.50;;;27.17;;
12990;SDS011;6560;57.692;11.958;2022-12-18T16:52:33;59.17;;;27.20;;
12990;SDS011;6560;57.692;11.958;2022-12-18T16:54:59;65.10;;;27.00;;